createdAt,value
2022-12-16T00:01:25.803Z,19.96
2022-12-16T00:06:29.195Z,20.07
2022-12-16T00:11:32.296Z,20.28
2022-12-16T00:16:33.730Z,20.27
2022-12-16T00:21:35.256Z,20.55
2022-12-16T00:26:36.988Z,20.32
2022-12-16T00:31:38.390Z,20.73
2022-12-16T00:36:39.807Z,20.27
2022-12-16T00:41:41.203Z,20.55
2022-12-16T00:46:42.575Z,20.70
2022-12-16T00:51:43.941Z,20.63
2022-12-16T00:56:45.345Z,20.71
2022-12-16T01:01:47.009Z,20.33
2022-12-16T01:06:48.467Z,20.05
2022-12-16T01:11:49.869Z,20.11
2022-12-16T01:16:51.741Z,20.40
2022-12-16T01:21:56.127Z,20.20
2022-12-16T01:26:57.507Z,20.13
2022-12-16T01:31:58.945Z,20.01
2022-12-16T01:37:00.351Z,20.00
2022-12-16T01:42:01.991Z,19.84
2022-12-16T01:47:04.822Z,19.63
2022-12-16T01:52:07.799Z,19.57
2022-12-16T01:57:13.711Z,19.58
2022-12-16T02:02:15.141Z,19.17
2022-12-16T02:07:16.589Z,18.98
2022-12-16T02:12:49.862Z,19.37
2022-12-16T02:18:16.475Z,19.17
2022-12-16T02:23:39.387Z,19.25
2022-12-16T02:29:04.030Z,19.25
2022-12-16T02:34:10.295Z,19.46
2022-12-16T02:39:17.763Z,19.50
2022-12-16T02:44:19.167Z,20.07
2022-12-16T02:49:20.384Z,20.11
2022-12-16T02:54:22.068Z,20.04
2022-12-16T02:59:27.747Z,19.95
2022-12-16T03:04:37.118Z,20.26
2022-12-16T03:09:38.478Z,20.14
2022-12-16T03:14:42.054Z,20.45
2022-12-16T03:19:45.963Z,20.53
2022-12-16T03:24:47.345Z,20.41
2022-12-16T03:29:54.965Z,20.79
2022-12-16T03:34:59.283Z,21.08
2022-12-16T03:40:01.347Z,20.58
2022-12-16T03:45:03.177Z,20.78
2022-12-16T03:50:04.968Z,20.80
2022-12-16T03:55:06.421Z,20.70
2022-12-16T04:00:09.259Z,20.74
2022-12-16T04:05:10.635Z,20.66
2022-12-16T04:10:12.160Z,20.34
2022-12-16T04:15:31.721Z,20.65
2022-12-16T04:20:55.157Z,20.40
2022-12-16T04:25:56.622Z,20.45
2022-12-16T04:30:58.058Z,20.51
2022-12-16T04:36:18.365Z,20.38
2022-12-16T04:41:38.268Z,19.98
2022-12-16T04:46:58.046Z,19.96
2022-12-16T04:52:17.960Z,19.26
2022-12-16T04:57:37.567Z,19.09
2022-12-16T05:02:57.242Z,19.09
2022-12-16T05:08:17.028Z,18.81
2022-12-16T05:13:36.658Z,19.00
2022-12-16T05:18:56.375Z,19.00
2022-12-16T05:24:16.055Z,18.93
2022-12-16T05:29:36.426Z,19.40
2022-12-16T05:34:56.016Z,19.48
2022-12-16T05:40:15.807Z,19.44
2022-12-16T05:45:35.535Z,18.83
2022-12-16T05:50:55.830Z,18.88
2022-12-16T05:56:15.832Z,18.80
2022-12-16T06:01:35.739Z,18.54
2022-12-16T06:06:55.652Z,18.74
2022-12-16T06:12:15.265Z,18.95
2022-12-16T06:17:35.163Z,18.75
2022-12-16T06:22:55.003Z,18.64
2022-12-16T06:28:14.695Z,18.85
2022-12-16T06:33:34.637Z,18.89
2022-12-16T06:38:54.586Z,18.51
2022-12-16T06:44:14.327Z,20.08
2022-12-16T06:49:33.967Z,20.51
2022-12-16T06:54:53.596Z,21.24
2022-12-16T07:00:13.379Z,20.64
2022-12-16T07:05:33.114Z,20.57
2022-12-16T07:10:55.071Z,20.34
2022-12-16T07:16:15.900Z,19.78
2022-12-16T07:21:35.664Z,19.81
2022-12-16T07:26:55.143Z,19.25
2022-12-16T07:32:14.778Z,19.11
2022-12-16T07:37:34.371Z,18.91
2022-12-16T07:42:54.161Z,18.78
2022-12-16T07:48:13.692Z,18.95
2022-12-16T07:53:33.850Z,18.61
2022-12-16T07:58:54.058Z,18.78
2022-12-16T08:04:15.434Z,18.87
2022-12-16T08:09:35.095Z,18.90
2022-12-16T08:14:55.047Z,19.34
2022-12-16T08:20:15.665Z,19.72
2022-12-16T08:25:35.379Z,19.57
2022-12-16T08:30:55.480Z,19.57
2022-12-16T08:36:17.486Z,21.03
2022-12-16T08:41:37.099Z,21.88
2022-12-16T08:46:57.024Z,22.02
2022-12-16T08:52:16.673Z,20.67
2022-12-16T08:57:36.577Z,20.53
2022-12-16T09:02:56.432Z,20.25
2022-12-16T09:08:20.191Z,20.11
2022-12-16T09:13:39.734Z,19.88
2022-12-16T09:18:59.784Z,19.75
2022-12-16T09:24:19.469Z,19.60
2022-12-16T09:29:43.496Z,19.66
2022-12-16T09:35:10.029Z,19.42
2022-12-16T09:40:34.145Z,19.36
2022-12-16T09:46:07.220Z,19.19
2022-12-16T09:51:27.180Z,19.22
2022-12-16T09:56:49.535Z,19.13
2022-12-16T10:02:09.606Z,18.92
2022-12-16T10:07:35.231Z,18.92
2022-12-16T10:12:59.963Z,18.86
2022-12-16T10:18:21.410Z,18.82
2022-12-16T10:23:48.514Z,18.79
2022-12-16T10:29:11.729Z,18.63
2022-12-16T10:34:37.708Z,18.79
2022-12-16T10:39:59.748Z,18.33
2022-12-16T10:45:20.116Z,18.29
2022-12-16T10:50:39.853Z,18.35
2022-12-16T10:56:32.926Z,17.94
2022-12-16T11:01:53.117Z,18.15
2022-12-16T11:07:14.159Z,18.34
2022-12-16T11:12:47.593Z,18.38
2022-12-16T11:18:36.691Z,18.27
2022-12-16T11:23:56.531Z,17.98
2022-12-16T11:29:35.433Z,18.39
2022-12-16T11:34:55.081Z,18.22
2022-12-16T11:40:17.629Z,18.36
2022-12-16T11:45:38.411Z,18.33
2022-12-16T11:51:09.804Z,18.58
2022-12-16T11:56:34.573Z,18.24
2022-12-16T12:02:04.480Z,18.05
2022-12-16T12:07:44.877Z,17.94
2022-12-16T12:13:08.359Z,17.89
2022-12-16T12:18:51.491Z,17.97
2022-12-16T12:24:27.953Z,17.97
2022-12-16T12:29:54.036Z,18.02
2022-12-16T12:35:26.488Z,17.98
2022-12-16T12:41:05.471Z,17.95
2022-12-16T12:46:29.925Z,17.98
2022-12-16T12:52:12.343Z,17.47
2022-12-16T12:57:32.184Z,17.80
2022-12-16T13:03:03.293Z,17.46
2022-12-16T13:09:01.343Z,17.71
2022-12-16T13:14:21.051Z,17.63
2022-12-16T13:19:50.819Z,17.47
2022-12-16T13:25:10.556Z,17.41
2022-12-16T13:30:30.765Z,17.64
2022-12-16T13:35:50.396Z,17.70
2022-12-16T13:41:14.663Z,17.97
2022-12-16T13:46:35.115Z,17.55
2022-12-16T13:51:54.827Z,17.82
2022-12-16T13:57:14.391Z,17.57
2022-12-16T14:02:39.850Z,17.75
2022-12-16T14:08:00.089Z,17.73
2022-12-16T14:13:34.925Z,17.18
2022-12-16T14:19:09.588Z,17.28
2022-12-16T14:24:35.435Z,17.15
2022-12-16T14:29:55.515Z,17.38
2022-12-16T14:35:19.952Z,17.67
2022-12-16T14:40:40.504Z,17.48
2022-12-16T14:46:00.372Z,17.05
2022-12-16T14:51:35.648Z,17.24
2022-12-16T14:56:55.447Z,17.51
2022-12-16T15:02:15.569Z,17.27
2022-12-16T15:07:35.869Z,17.24
2022-12-16T15:13:01.485Z,16.85
2022-12-16T15:18:23.521Z,17.10
2022-12-16T15:23:45.285Z,17.08
2022-12-16T15:29:05.288Z,16.87
2022-12-16T15:34:46.152Z,16.67
2022-12-16T15:40:05.883Z,16.79
2022-12-16T15:45:37.263Z,16.91
2022-12-16T15:50:57.251Z,16.85
2022-12-16T15:56:17.356Z,16.64
2022-12-16T16:01:44.350Z,16.66
2022-12-16T16:07:11.437Z,16.97
2022-12-16T16:12:32.855Z,16.66
2022-12-16T16:17:52.479Z,16.92
2022-12-16T16:23:12.036Z,16.61
2022-12-16T16:28:31.715Z,16.94
2022-12-16T16:33:51.656Z,16.67
2022-12-16T16:39:11.346Z,16.68
2022-12-16T16:44:31.119Z,17.02
2022-12-16T16:49:51.810Z,16.67
2022-12-16T16:55:31.379Z,16.62
2022-12-16T17:00:51.701Z,16.90
2022-12-16T17:06:12.066Z,16.88
2022-12-16T17:11:36.653Z,16.72
2022-12-16T17:16:56.334Z,16.86
2022-12-16T17:22:16.243Z,16.91
2022-12-16T17:27:38.159Z,16.90
2022-12-16T17:32:57.934Z,17.28
2022-12-16T17:38:17.656Z,17.35
2022-12-16T17:43:37.627Z,17.35
2022-12-16T17:48:57.567Z,17.30
2022-12-16T17:54:22.820Z,17.26
2022-12-16T17:59:49.298Z,17.29
2022-12-16T18:05:11.896Z,17.18
2022-12-16T18:10:32.161Z,17.21
2022-12-16T18:15:51.919Z,17.23
2022-12-16T18:21:11.675Z,17.19
2022-12-16T18:26:31.371Z,17.40
2022-12-16T18:31:51.690Z,17.08
2022-12-16T18:37:11.375Z,17.31
2022-12-16T18:42:31.108Z,17.12
2022-12-16T18:47:50.847Z,17.14
2022-12-16T18:53:10.542Z,16.95
2022-12-16T19:04:10.250Z,17.40
2022-12-16T19:09:30.216Z,17.14
2022-12-16T19:14:49.875Z,17.17
2022-12-16T19:20:09.515Z,17.40
2022-12-16T19:25:29.172Z,17.54
2022-12-16T19:30:48.838Z,17.50
2022-12-16T19:36:08.620Z,17.40
2022-12-16T19:41:35.973Z,17.07
2022-12-16T19:46:56.449Z,17.19
2022-12-16T19:52:16.602Z,17.27
2022-12-16T19:57:38.319Z,17.47
2022-12-16T20:02:58.124Z,17.63
2022-12-16T20:08:25.722Z,17.39
2022-12-16T20:13:45.516Z,17.73
2022-12-16T20:19:05.289Z,17.52
2022-12-16T20:24:25.613Z,17.18
2022-12-16T20:29:45.627Z,17.26
2022-12-16T20:35:07.268Z,17.33
2022-12-16T20:40:27.536Z,17.08
2022-12-16T20:45:47.263Z,17.48
2022-12-16T20:51:14.029Z,17.29
2022-12-16T20:56:33.848Z,17.44
2022-12-16T21:02:21.533Z,17.73
2022-12-16T21:07:33.331Z,17.70
2022-12-16T21:12:53.567Z,17.90
2022-12-16T21:18:13.389Z,17.83
2022-12-16T21:23:33.489Z,17.96
2022-12-16T21:28:53.472Z,17.83
2022-12-16T21:34:16.216Z,17.74
2022-12-16T21:39:35.940Z,17.99
2022-12-16T21:44:56.376Z,17.70
2022-12-16T21:50:16.592Z,17.98
2022-12-16T21:55:36.235Z,17.70
2022-12-16T22:01:00.272Z,17.73
2022-12-16T22:06:20.331Z,17.73
2022-12-16T22:11:40.054Z,17.71
2022-12-16T22:17:00.209Z,17.57
2022-12-16T22:22:20.213Z,17.42
2022-12-16T22:27:39.968Z,17.51
2022-12-16T22:32:59.728Z,17.48
2022-12-16T22:38:19.262Z,17.48
2022-12-16T22:43:47.120Z,17.55
2022-12-16T22:49:07.156Z,17.42
2022-12-16T22:54:27.131Z,17.15
2022-12-16T22:59:46.760Z,17.41
2022-12-16T23:05:06.465Z,17.51
2022-12-16T23:10:26.796Z,17.36
2022-12-16T23:15:46.366Z,17.68
2022-12-16T23:21:07.234Z,17.28
2022-12-16T23:26:27.364Z,17.63
2022-12-16T23:31:47.080Z,17.81
2022-12-16T23:37:06.671Z,17.64
2022-12-16T23:42:26.416Z,18.00
2022-12-16T23:47:45.956Z,17.88
2022-12-16T23:53:05.752Z,17.99
2022-12-16T23:58:25.467Z,18.32
